Time;durP1;ratioP1;P1;durP2;ratioP2;P2;SDS_P1;SDS_P2;PMS_P1;PMS_P2;Temp;Humidity;BMP_temperature;BMP_pressure;BME280_temperature;BME280_humidity;BME280_pressure;Samples;Min_cycle;Max_cycle;Signal;HPM_P1;HPM_P2
2021/09/14 00:00:05;;;;;;;6.03;5.53;;;20.30;74.90;;;;;;5045453;28;20221;-91
2021/09/14 00:02:30;;;;;;;5.70;5.30;;;20.40;74.40;;;;;;5060650;28;20201;-90
2021/09/14 00:04:56;;;;;;;7.00;5.93;;;20.30;75.00;;;;;;5052799;28;20268;-90
2021/09/14 00:07:22;;;;;;;6.28;5.70;;;20.30;75.00;;;;;;5042997;28;20302;-90
2021/09/14 00:09:48;;;;;;;6.03;5.25;;;20.20;74.80;;;;;;5048587;28;20184;-90
2021/09/14 00:12:14;;;;;;;6.45;5.18;;;20.30;75.00;;;;;;5039303;28;20215;-90
2021/09/14 00:14:40;;;;;;;6.00;5.60;;;20.30;74.70;;;;;;5042702;28;20700;-90
2021/09/14 00:17:06;;;;;;;6.03;5.50;;;20.20;74.90;;;;;;5058104;28;20244;-89
2021/09/14 00:19:32;;;;;;;6.82;6.05;;;20.20;74.60;;;;;;5038509;28;20203;-90
2021/09/14 00:21:58;;;;;;;7.25;6.07;;;20.10;75.40;;;;;;5044210;28;20244;-90
2021/09/14 00:24:24;;;;;;;6.88;5.75;;;19.80;76.10;;;;;;5029085;28;20222;-90
2021/09/14 00:26:50;;;;;;;5.97;5.40;;;19.80;76.10;;;;;;5043898;28;20216;-90
2021/09/14 00:29:15;;;;;;;6.50;6.00;;;19.80;76.30;;;;;;5040089;28;20202;-91
2021/09/14 00:31:41;;;;;;;5.82;5.38;;;19.70;76.90;;;;;;5043570;28;20203;-90
2021/09/14 00:34:07;;;;;;;6.20;5.72;;;19.70;77.50;;;;;;5059146;28;20214;-90
2021/09/14 00:36:33;;;;;;;6.60;5.30;;;19.70;76.70;;;;;;5036429;28;20219;-90
2021/09/14 00:38:58;;;;;;;5.72;5.22;;;19.80;76.20;;;;;;5028499;28;20248;-90
2021/09/14 00:41:24;;;;;;;6.82;5.70;;;19.80;76.20;;;;;;5045308;28;20254;-90
2021/09/14 00:44:01;;;;;;;6.00;5.40;;;19.70;75.40;;;;;;5032807;28;20300;-90
2021/09/14 00:46:27;;;;;;;6.32;5.75;;;19.60;76.00;;;;;;5032532;28;20262;-91
2021/09/14 00:48:53;;;;;;;5.68;5.18;;;19.60;76.20;;;;;;5035668;28;20190;-91
2021/09/14 00:51:19;;;;;;;5.50;5.10;;;19.60;75.70;;;;;;5060886;28;20217;-91
2021/09/14 00:53:47;;;;;;;6.32;5.72;;;19.70;76.00;;;;;;5057910;28;20193;-90
2021/09/14 00:56:14;;;;;;;6.28;5.15;;;19.70;76.20;;;;;;5045777;28;20190;-90
2021/09/14 00:58:41;;;;;;;7.40;6.30;;;19.60;76.10;;;;;;5060946;28;20276;-90
2021/09/14 01:01:07;;;;;;;7.50;5.60;;;19.50;75.30;;;;;;5056895;28;20203;-91
2021/09/14 01:03:32;;;;;;;6.35;5.85;;;19.10;76.30;;;;;;5039637;28;20334;-91
2021/09/14 01:06:00;;;;;;;5.90;5.47;;;19.00;78.00;;;;;;5027223;28;20179;-91
2021/09/14 01:08:26;;;;;;;5.72;5.22;;;19.00;77.80;;;;;;5058955;28;20211;-90
2021/09/14 01:10:53;;;;;;;6.00;5.55;;;19.10;77.90;;;;;;5059343;28;20200;-91
2021/09/14 01:13:19;;;;;;;6.38;5.78;;;19.20;77.20;;;;;;5042805;28;20723;-91
2021/09/14 01:15:44;;;;;;;5.97;5.47;;;19.40;76.90;;;;;;5060683;28;20181;-90
2021/09/14 01:18:10;;;;;;;6.10;5.60;;;19.50;76.70;;;;;;5051721;28;20213;-90
2021/09/14 01:20:36;;;;;;;6.88;6.18;;;19.50;76.70;;;;;;5034186;28;20194;-90
2021/09/14 01:23:02;;;;;;;5.78;5.25;;;19.40;75.70;;;;;;5059257;28;20220;-90
2021/09/14 01:25:31;;;;;;;6.68;5.88;;;19.30;77.20;;;;;;5059850;28;20199;-90
2021/09/14 01:28:05;;;;;;;6.00;5.50;;;19.40;75.40;;;;;;5043924;28;20208;-90
2021/09/14 01:30:32;;;;;;;6.35;5.85;;;19.30;76.40;;;;;;5026189;28;20194;-91
2021/09/14 01:32:58;;;;;;;5.82;5.32;;;19.30;76.80;;;;;;5029282;28;20211;-91
2021/09/14 01:35:27;;;;;;;6.43;5.72;;;19.40;76.50;;;;;;5062911;28;20200;-90
2021/09/14 01:37:53;;;;;;;6.15;5.63;;;19.40;76.00;;;;;;5057215;28;20291;-90
2021/09/14 01:40:19;;;;;;;6.18;4.80;;;19.50;76.20;;;;;;5062077;28;20204;-90
2021/09/14 01:42:45;;;;;;;5.95;5.45;;;19.50;76.00;;;;;;5064449;28;20212;-91
2021/09/14 01:45:12;;;;;;;6.88;5.88;;;19.50;76.00;;;;;;5063535;28;20185;-91
2021/09/14 01:47:39;;;;;;;6.32;5.50;;;19.50;75.20;;;;;;5064538;28;20212;-90
2021/09/14 01:50:06;;;;;;;6.78;6.10;;;19.40;75.40;;;;;;5031567;28;20601;-91
2021/09/14 01:52:33;;;;;;;5.80;5.40;;;19.10;75.70;;;;;;5035188;28;20193;-90
2021/09/14 01:55:08;;;;;;;6.57;5.97;;;18.90;77.60;;;;;;5034458;28;20201;-90
2021/09/14 01:57:35;;;;;;;5.68;5.15;;;19.00;78.00;;;;;;5050856;28;20288;-91
2021/09/14 02:00:05;;;;;;;6.57;5.82;;;19.00;77.90;;;;;;5045379;28;20172;-90
2021/09/14 02:02:45;;;;;;;6.22;5.72;;;19.10;77.30;;;;;;5037445;28;20205;-91
2021/09/14 02:05:21;;;;;;;6.47;5.97;;;19.00;77.10;;;;;;5030884;28;20204;-90
2021/09/14 02:59:36;;;;;;;5.63;5.10;;;18.80;77.60;;;;;;5062601;28;20191;-90
2021/09/14 03:02:03;;;;;;;5.97;5.47;;;18.80;77.50;;;;;;5056535;28;20181;-90
2021/09/14 03:04:29;;;;;;;5.80;5.40;;;18.90;77.60;;;;;;5060247;28;20228;-90
2021/09/14 03:06:55;;;;;;;5.53;4.93;;;18.90;77.10;;;;;;5056083;28;20224;-92
2021/09/14 03:09:21;;;;;;;6.18;5.53;;;19.00;76.90;;;;;;5064825;28;20192;-90
2021/09/14 03:11:47;;;;;;;5.93;5.43;;;18.90;76.90;;;;;;5049808;28;20261;-90
2021/09/14 03:14:12;;;;;;;5.72;5.32;;;19.00;76.90;;;;;;5033518;28;20169;-90
2021/09/14 03:16:39;;;;;;;6.30;5.70;;;18.90;77.00;;;;;;5063948;28;20196;-90
2021/09/14 03:19:05;;;;;;;6.28;5.68;;;18.90;76.80;;;;;;5059698;28;20684;-90
2021/09/14 03:21:31;;;;;;;5.82;5.43;;;18.80;77.10;;;;;;5042162;28;20212;-90
2021/09/14 03:23:57;;;;;;;5.88;5.38;;;18.80;77.10;;;;;;5043056;28;20296;-91
2021/09/14 03:26:23;;;;;;;5.53;5.13;;;18.80;76.90;;;;;;5054455;28;20208;-90
2021/09/14 03:28:49;;;;;;;5.72;5.18;;;18.80;77.40;;;;;;5051266;28;20186;-91
2021/09/14 03:31:16;;;;;;;6.38;5.78;;;18.80;77.00;;;;;;5032837;28;20181;-90
2021/09/14 03:33:46;;;;;;;12.88;6.10;;;18.80;77.00;;;;;;5052435;28;20240;-90
2021/09/14 03:36:12;;;;;;;6.55;6.05;;;18.70;76.80;;;;;;5046572;28;20867;-90
2021/09/14 03:38:38;;;;;;;5.78;5.28;;;18.60;77.60;;;;;;5063647;28;20215;-90
2021/09/14 03:41:04;;;;;;;6.50;6.00;;;18.70;78.30;;;;;;5065184;28;20204;-90
2021/09/14 03:43:30;;;;;;;5.80;5.35;;;18.70;78.60;;;;;;5059675;28;20235;-91
2021/09/14 03:45:55;;;;;;;6.65;6.10;;;18.60;79.00;;;;;;5011167;28;20267;-90
2021/09/14 03:48:21;;;;;;;8.07;5.90;;;18.50;78.70;;;;;;5058961;28;20247;-90
2021/09/14 03:50:47;;;;;;;7.00;6.40;;;18.40;79.20;;;;;;5055111;28;20535;-91
2021/09/14 03:53:13;;;;;;;6.90;6.30;;;18.40;79.40;;;;;;5046632;28;20201;-91
2021/09/14 03:55:39;;;;;;;6.05;5.55;;;18.40;79.20;;;;;;5052729;28;20286;-90
2021/09/14 03:58:04;;;;;;;6.07;5.63;;;18.40;79.00;;;;;;5061083;28;20216;-90
2021/09/14 04:00:30;;;;;;;5.60;5.20;;;18.40;79.20;;;;;;5056666;28;20203;-90
2021/09/14 04:10:20;;;;;;;6.32;5.75;;;18.40;78.60;;;;;;5053138;28;20203;-90
2021/09/14 04:12:46;;;;;;;7.70;7.00;;;18.40;78.30;;;;;;5014830;28;20224;-90
2021/09/14 04:15:11;;;;;;;6.50;5.90;;;18.40;77.80;;;;;;5046004;28;20840;-90
2021/09/14 04:17:37;;;;;;;6.65;5.72;;;18.30;78.30;;;;;;5055619;28;20211;-90
2021/09/14 04:20:04;;;;;;;6.00;5.50;;;18.30;78.50;;;;;;5047532;28;20211;-90
2021/09/14 04:22:29;;;;;;;7.60;6.00;;;18.30;77.90;;;;;;5047023;28;20195;-90
2021/09/14 04:24:55;;;;;;;6.50;5.95;;;18.30;77.90;;;;;;5052815;28;20656;-90
2021/09/14 04:27:21;;;;;;;14.57;13.57;;;18.20;77.50;;;;;;5047361;28;20244;-90
2021/09/14 04:29:47;;;;;;;6.72;6.22;;;18.10;77.90;;;;;;5029869;28;20195;-90
2021/09/14 04:32:13;;;;;;;9.77;5.72;;;18.10;78.00;;;;;;5042643;28;20190;-91
2021/09/14 04:34:39;;;;;;;6.28;5.78;;;18.10;78.40;;;;;;5041259;28;20176;-92
2021/09/14 04:37:05;;;;;;;5.88;5.32;;;18.10;78.70;;;;;;5051056;28;20219;-91
2021/09/14 04:39:30;;;;;;;6.30;5.70;;;18.10;78.30;;;;;;5053047;28;20198;-92
2021/09/14 04:41:56;;;;;;;5.72;5.32;;;18.10;78.10;;;;;;5041157;28;20263;-92
2021/09/14 04:44:22;;;;;;;6.20;5.43;;;18.20;78.60;;;;;;5050743;28;20600;-91
2021/09/14 04:46:47;;;;;;;7.88;5.85;;;18.10;78.00;;;;;;5052386;28;20599;-90
2021/09/14 04:49:13;;;;;;;6.55;5.60;;;18.10;78.60;;;;;;5052312;28;20203;-91
2021/09/14 04:51:39;;;;;;;6.30;5.70;;;18.00;78.00;;;;;;5054266;28;20192;-91
2021/09/14 04:54:04;;;;;;;5.78;5.38;;;18.10;78.60;;;;;;5027578;28;20203;-91
2021/09/14 04:56:30;;;;;;;6.50;5.90;;;18.10;78.90;;;;;;5041394;28;20200;-91
2021/09/14 04:58:56;;;;;;;6.45;5.85;;;18.10;78.50;;;;;;5031750;28;20211;-92
2021/09/14 05:01:22;;;;;;;5.78;5.15;;;18.10;78.40;;;;;;5058344;28;20197;-91
2021/09/14 05:03:48;;;;;;;6.28;5.78;;;18.10;77.90;;;;;;5062660;28;20277;-90
2021/09/14 05:06:14;;;;;;;6.20;5.70;;;18.10;78.90;;;;;;5041830;28;20188;-91
2021/09/14 05:08:40;;;;;;;11.82;5.72;;;18.10;78.60;;;;;;5059394;28;20246;-93
2021/09/14 05:11:07;;;;;;;6.13;5.47;;;18.00;77.80;;;;;;5058609;28;20200;-89
2021/09/14 05:13:34;;;;;;;6.57;5.82;;;18.10;78.20;;;;;;5041526;28;20195;-90
2021/09/14 05:16:00;;;;;;;16.60;7.25;;;18.00;78.00;;;;;;5042324;28;20271;-90
2021/09/14 05:18:26;;;;;;;7.13;5.60;;;18.10;78.30;;;;;;5054904;28;20699;-90
2021/09/14 05:20:53;;;;;;;5.93;5.35;;;18.10;77.70;;;;;;5051922;28;20803;-90
2021/09/14 05:23:25;;;;;;;5.97;5.47;;;18.00;78.10;;;;;;5035981;28;20216;-89
2021/09/14 05:25:51;;;;;;;6.90;6.22;;;18.00;77.70;;;;;;5053746;28;20218;-90
2021/09/14 05:28:17;;;;;;;6.82;6.22;;;18.00;78.10;;;;;;5038334;28;20218;-89
2021/09/14 05:30:47;;;;;;;8.30;6.30;;;18.00;78.30;;;;;;5048011;28;20266;-91
2021/09/14 05:33:14;;;;;;;6.78;6.07;;;18.10;78.10;;;;;;5045801;28;20185;-90
2021/09/14 05:35:51;;;;;;;7.13;6.53;;;18.00;77.10;;;;;;5047204;28;20203;-90
2021/09/14 05:38:20;;;;;;;6.70;6.10;;;17.90;78.30;;;;;;5043553;28;20352;-90
2021/09/14 05:40:46;;;;;;;5.80;5.40;;;17.80;79.00;;;;;;5048130;28;20199;-90
2021/09/14 05:43:12;;;;;;;8.40;6.50;;;17.70;79.40;;;;;;5017113;28;20212;-90
2021/09/14 05:48:37;;;;;;;7.80;6.35;;;17.60;80.40;;;;;;5037898;28;20226;-92
2021/09/14 05:51:06;;;;;;;7.43;6.55;;;17.70;79.90;;;;;;5018075;28;20282;-92
2021/09/14 05:53:35;;;;;;;6.80;6.30;;;17.90;79.50;;;;;;5025338;28;20316;-92
2021/09/14 05:56:02;;;;;;;9.38;6.57;;;17.80;79.00;;;;;;5057816;28;20188;-92
2021/09/14 05:58:28;;;;;;;7.45;6.70;;;17.80;80.00;;;;;;5051761;28;20219;-92
2021/09/14 06:01:03;;;;;;;6.60;6.00;;;17.80;79.60;;;;;;5038986;28;20207;-92
2021/09/14 06:03:30;;;;;;;7.03;6.43;;;17.70;80.60;;;;;;5033943;28;20211;-92
2021/09/14 06:05:59;;;;;;;6.95;6.35;;;17.70;80.90;;;;;;5051969;28;20184;-92
2021/09/14 06:08:25;;;;;;;8.40;7.68;;;17.80;80.90;;;;;;5051395;28;20273;-91
2021/09/14 06:10:51;;;;;;;7.10;6.60;;;17.80;81.00;;;;;;5031811;28;20598;-91
2021/09/14 06:13:16;;;;;;;7.35;6.63;;;17.70;81.60;;;;;;5032824;28;20268;-92
2021/09/14 06:15:43;;;;;;;7.13;6.47;;;17.90;81.70;;;;;;5031084;28;20195;-93
2021/09/14 06:18:11;;;;;;;7.32;6.63;;;18.00;80.50;;;;;;5018923;28;20215;-89
2021/09/14 06:20:37;;;;;;;6.25;5.68;;;18.00;80.30;;;;;;5046364;28;20183;-90
2021/09/14 06:23:03;;;;;;;6.57;6.10;;;17.90;81.70;;;;;;5020041;28;20239;-90
2021/09/14 06:25:29;;;;;;;8.88;7.03;;;18.00;81.50;;;;;;5058740;28;20207;-90
2021/09/14 06:27:55;;;;;;;6.53;6.03;;;18.10;81.30;;;;;;5056421;28;20223;-90
2021/09/14 06:30:26;;;;;;;7.90;7.10;;;18.20;81.00;;;;;;5065231;28;20207;-88
2021/09/14 06:32:52;;;;;;;7.75;6.68;;;18.30;80.70;;;;;;5065712;28;20171;-90
2021/09/14 06:35:18;;;;;;;8.35;7.28;;;18.40;80.30;;;;;;5055264;28;20199;-88
2021/09/14 06:37:44;;;;;;;10.45;6.78;;;18.40;80.50;;;;;;5048469;28;20235;-90
2021/09/14 06:40:10;;;;;;;10.73;7.80;;;18.50;80.40;;;;;;5037895;28;20185;-90
2021/09/14 06:42:36;;;;;;;7.50;6.78;;;18.60;80.10;;;;;;5057461;28;20203;-90
2021/09/14 06:45:03;;;;;;;10.77;7.50;;;18.60;80.00;;;;;;5035800;28;20196;-90
2021/09/14 06:47:29;;;;;;;10.55;7.38;;;18.60;79.90;;;;;;5052996;28;20223;-89
2021/09/14 06:49:55;;;;;;;8.65;6.97;;;18.60;80.30;;;;;;5051462;28;20185;-91
2021/09/14 06:52:20;;;;;;;7.68;7.03;;;18.60;81.20;;;;;;5037448;28;20195;-90
2021/09/14 06:54:46;;;;;;;8.70;7.82;;;18.50;81.70;;;;;;5059100;28;20234;-92
2021/09/14 06:57:12;;;;;;;9.15;7.53;;;18.60;81.20;;;;;;5042955;28;20220;-92
2021/09/14 06:59:38;;;;;;;11.73;8.38;;;18.70;81.30;;;;;;5037996;28;20225;-91
2021/09/14 07:02:06;;;;;;;9.05;8.25;;;18.70;82.10;;;;;;5055894;28;20192;-92
2021/09/14 07:04:35;;;;;;;10.50;8.30;;;18.70;81.80;;;;;;5007403;28;20209;-91
2021/09/14 07:07:01;;;;;;;18.50;9.32;;;18.70;81.80;;;;;;5028837;28;20263;-89
2021/09/14 07:09:32;;;;;;;8.98;8.15;;;18.80;81.30;;;;;;5024793;28;20200;-90
2021/09/14 07:12:07;;;;;;;9.02;8.07;;;18.90;80.60;;;;;;5035935;28;20666;-91
2021/09/14 07:14:37;;;;;;;10.75;9.50;;;19.00;80.20;;;;;;5049559;28;20225;-90
2021/09/14 07:17:06;;;;;;;10.23;9.27;;;19.10;80.30;;;;;;5034368;28;20561;-91
2021/09/14 07:19:38;;;;;;;11.55;10.32;;;19.10;80.40;;;;;;5029182;28;20215;-91
2021/09/14 07:22:15;;;;;;;11.57;10.57;;;19.10;81.00;;;;;;5029984;28;20193;-89
2021/09/14 07:24:53;;;;;;;12.35;10.55;;;19.10;81.30;;;;;;5027077;28;20216;-90
2021/09/14 07:27:19;;;;;;;12.70;11.40;;;19.10;81.70;;;;;;5035586;28;20204;-91
2021/09/14 07:29:45;;;;;;;11.57;10.63;;;18.90;82.30;;;;;;5019863;28;20189;-91
2021/09/14 07:32:14;;;;;;;12.35;11.40;;;19.10;81.40;;;;;;5037077;28;21376;-91
2021/09/14 07:34:40;;;;;;;12.70;11.57;;;19.10;81.80;;;;;;5037812;28;20203;-90
2021/09/14 07:37:11;;;;;;;11.65;10.57;;;19.00;83.00;;;;;;5034161;28;20221;-90
2021/09/14 07:39:38;;;;;;;12.48;11.27;;;19.20;83.00;;;;;;5033945;28;20217;-90
2021/09/14 07:42:04;;;;;;;13.52;12.15;;;19.30;82.50;;;;;;5034931;28;20224;-89
2021/09/14 07:44:49;;;;;;;12.52;11.02;;;19.40;82.70;;;;;;5038975;28;20631;-90
2021/09/14 07:47:16;;;;;;;13.40;12.40;;;19.50;81.40;;;;;;5032633;28;20224;-91
2021/09/14 07:50:04;;;;;;;13.85;12.65;;;19.70;81.30;;;;;;5041762;28;20703;-90
2021/09/14 07:52:39;;;;;;;16.23;12.57;;;19.80;81.10;;;;;;5042665;28;20960;-91
2021/09/14 07:55:06;;;;;;;14.40;13.00;;;19.90;81.10;;;;;;5033352;28;20197;-90
2021/09/14 08:00:53;;;;;;;14.77;13.27;;;19.80;82.40;;;;;;5053095;28;20275;-88
2021/09/14 08:03:22;;;;;;;13.70;12.32;;;19.80;82.50;;;;;;5026131;28;20233;-90
2021/09/14 08:06:04;;;;;;;16.23;14.75;;;19.90;82.60;;;;;;5041747;28;20223;-89
2021/09/14 08:08:44;;;;;;;16.00;14.57;;;20.00;82.00;;;;;;5037809;28;20276;-89
2021/09/14 08:11:26;;;;;;;16.15;14.70;;;19.90;82.30;;;;;;5025662;28;20404;-89
2021/09/14 08:14:09;;;;;;;17.23;15.63;;;20.00;82.10;;;;;;5022833;28;20203;-89
2021/09/14 08:16:37;;;;;;;16.90;15.20;;;20.10;82.00;;;;;;5038158;28;20176;-89
2021/09/14 08:19:03;;;;;;;17.50;14.95;;;20.10;81.30;;;;;;5018877;28;20201;-89
2021/09/14 08:21:57;;;;;;;15.25;13.75;;;20.20;81.70;;;;;;5051919;28;20869;-91
2021/09/14 08:24:23;;;;;;;13.77;12.57;;;20.30;81.50;;;;;;5041922;28;20232;-91
2021/09/14 08:26:56;;;;;;;14.15;12.65;;;20.40;80.60;;;;;;5041603;28;20237;-90
2021/09/14 08:29:22;;;;;;;14.48;13.23;;;20.70;80.50;;;;;;5027567;28;20796;-92
2021/09/14 08:31:53;;;;;;;19.50;12.50;;;20.80;79.30;;;;;;5035946;28;20195;-91
2021/09/14 08:34:19;;;;;;;15.25;13.65;;;20.90;79.70;;;;;;5050871;28;20199;-91
2021/09/14 08:36:44;;;;;;;15.60;13.95;;;21.10;79.60;;;;;;5050892;28;20227;-91
2021/09/14 08:39:10;;;;;;;14.07;12.75;;;21.20;78.70;;;;;;5018623;28;20203;-89
2021/09/14 08:41:38;;;;;;;14.32;13.02;;;21.30;79.30;;;;;;5030386;28;20614;-90
2021/09/14 08:44:04;;;;;;;15.15;13.75;;;21.20;79.00;;;;;;5043602;28;20273;-90
2021/09/14 08:46:31;;;;;;;14.07;12.95;;;21.20;78.80;;;;;;5052294;28;20207;-91
2021/09/14 08:49:01;;;;;;;15.10;13.45;;;21.30;79.60;;;;;;5038395;28;20195;-90
2021/09/14 08:51:27;;;;;;;14.40;13.18;;;21.50;79.20;;;;;;5055521;28;20180;-90
2021/09/14 08:53:58;;;;;;;14.52;13.23;;;21.60;78.60;;;;;;5065202;28;20235;-91
2021/09/14 08:56:24;;;;;;;15.05;13.77;;;21.50;77.30;;;;;;5065078;28;20268;-89
2021/09/14 08:59:01;;;;;;;14.45;13.05;;;21.70;76.10;;;;;;5067347;28;20774;-90
2021/09/14 09:01:27;;;;;;;14.55;13.20;;;21.60;77.80;;;;;;5070916;28;20183;-90
2021/09/14 09:04:20;;;;;;;14.00;12.70;;;21.70;76.70;;;;;;5051286;28;20327;-90
2021/09/14 09:06:46;;;;;;;13.52;12.38;;;21.70;76.70;;;;;;5048677;28;20224;-90
2021/09/14 09:09:17;;;;;;;13.40;12.30;;;21.70;77.80;;;;;;5051727;28;20195;-90
2021/09/14 09:12:00;;;;;;;13.35;12.15;;;21.90;74.90;;;;;;5052039;28;20250;-90
2021/09/14 09:15:11;;;;;;;14.48;13.18;;;22.20;74.40;;;;;;5069582;28;20188;-92
2021/09/14 09:17:40;;;;;;;14.48;13.10;;;21.90;75.30;;;;;;5022430;22;20629;-91
2021/09/14 09:20:07;;;;;;;13.02;11.68;;;22.10;75.70;;;;;;5072166;28;20795;-92
2021/09/14 09:22:34;;;;;;;15.98;12.82;;;22.30;74.30;;;;;;5051119;28;20685;-88
2021/09/14 09:25:00;;;;;;;13.07;10.82;;;22.60;73.60;;;;;;5059134;28;20208;-88
2021/09/14 09:27:29;;;;;;;12.00;10.88;;;22.70;73.70;;;;;;5039342;28;20222;-87
2021/09/14 09:29:58;;;;;;;12.80;11.50;;;22.90;72.10;;;;;;5081293;28;20228;-86
2021/09/14 09:32:24;;;;;;;11.23;10.23;;;22.70;73.30;;;;;;5076833;28;20238;-86
2021/09/14 09:34:58;;;;;;;18.25;11.35;;;22.90;71.80;;;;;;5077761;28;20183;-86
2021/09/14 09:37:24;;;;;;;11.13;10.23;;;23.10;70.50;;;;;;5078610;28;20247;-86
2021/09/14 09:39:49;;;;;;;11.43;10.40;;;23.10;70.30;;;;;;5075924;28;20184;-85
2021/09/14 09:42:16;;;;;;;11.40;10.30;;;23.30;69.80;;;;;;5058242;28;20188;-87
2021/09/14 09:44:54;;;;;;;10.57;9.52;;;23.60;67.60;;;;;;5064259;28;20245;-86
2021/09/14 09:47:20;;;;;;;10.38;9.50;;;23.90;67.20;;;;;;5075331;28;20278;-86
2021/09/14 09:49:49;;;;;;;11.55;10.55;;;23.70;67.60;;;;;;5077396;28;20534;-87
2021/09/14 09:52:16;;;;;;;10.77;9.75;;;23.80;66.60;;;;;;5040103;28;20188;-87
2021/09/14 09:54:43;;;;;;;10.88;9.93;;;23.80;68.60;;;;;;5070022;28;20683;-86
2021/09/14 09:57:09;;;;;;;10.57;9.57;;;23.90;67.50;;;;;;5064988;28;20261;-86
2021/09/14 09:59:35;;;;;;;11.23;10.00;;;24.40;66.80;;;;;;5065900;28;20247;-86
2021/09/14 10:03:02;;;;;;;10.85;9.80;;;24.40;65.10;;;;;;5062853;28;20216;-87
2021/09/14 10:05:31;;;;;;;10.90;10.00;;;24.60;64.00;;;;;;4966957;28;20227;-88
2021/09/14 10:08:05;;;;;;;10.57;9.55;;;24.20;66.70;;;;;;5069358;28;20253;-86
2021/09/14 10:10:35;;;;;;;10.02;9.20;;;24.40;65.00;;;;;;5051222;28;20728;-86
2021/09/14 10:13:06;;;;;;;10.25;9.45;;;24.30;65.20;;;;;;5065572;28;20183;-86
2021/09/14 10:15:45;;;;;;;9.30;8.57;;;24.50;65.00;;;;;;5057111;28;20183;-86
2021/09/14 10:18:11;;;;;;;10.63;9.82;;;24.30;66.60;;;;;;5074178;28;20243;-87
2021/09/14 10:20:42;;;;;;;9.73;8.90;;;24.10;67.00;;;;;;5061356;28;20187;-86
2021/09/14 10:23:17;;;;;;;10.70;9.70;;;24.40;66.60;;;;;;5085146;28;20218;-83
2021/09/14 10:25:46;;;;;;;9.98;9.18;;;24.10;67.90;;;;;;5076992;28;20252;-86
2021/09/14 10:28:13;;;;;;;18.23;9.85;;;24.60;66.50;;;;;;5064108;28;20222;-87
2021/09/14 10:30:40;;;;;;;9.00;8.25;;;24.60;66.50;;;;;;5050965;28;20202;-87
2021/09/14 10:33:17;;;;;;;9.27;8.52;;;24.70;65.70;;;;;;5067106;28;20250;-87
2021/09/14 10:35:45;;;;;;;9.57;8.68;;;25.10;63.10;;;;;;5066259;28;20183;-86
2021/09/14 10:38:12;;;;;;;22.63;9.98;;;25.40;63.10;;;;;;5053514;28;20226;-85
2021/09/14 10:40:44;;;;;;;9.68;8.80;;;25.30;64.60;;;;;;5067039;28;20559;-87
2021/09/14 10:43:32;;;;;;;9.35;8.65;;;25.30;63.30;;;;;;5082636;28;20220;-85
2021/09/14 10:45:59;;;;;;;9.65;8.77;;;25.30;62.80;;;;;;5085227;28;20294;-86
2021/09/14 10:48:34;;;;;;;10.13;9.18;;;25.30;63.60;;;;;;5085726;28;20205;-85
2021/09/14 10:51:14;;;;;;;8.93;8.23;;;25.30;64.10;;;;;;5085488;28;20194;-85
2021/09/14 10:53:40;;;;;;;10.10;9.27;;;25.50;63.90;;;;;;5078911;28;20191;-86
2021/09/14 10:56:09;;;;;;;9.43;8.52;;;25.70;61.80;;;;;;5069225;28;20203;-86
2021/09/14 10:58:41;;;;;;;9.55;8.65;;;25.90;61.10;;;;;;5065883;28;20275;-86
2021/09/14 11:01:07;;;;;;;10.18;9.18;;;26.10;60.60;;;;;;5069633;28;20191;-87
2021/09/14 11:03:35;;;;;;;9.48;8.23;;;25.90;61.40;;;;;;5068760;28;20222;-86
2021/09/14 11:06:02;;;;;;;9.23;8.43;;;25.90;62.50;;;;;;5074980;28;20204;-86
2021/09/14 11:08:28;;;;;;;11.98;8.95;;;25.90;63.20;;;;;;5072406;28;20227;-88
2021/09/14 11:11:02;;;;;;;12.02;8.30;;;26.00;62.70;;;;;;5047750;28;20196;-87
2021/09/14 11:13:30;;;;;;;9.25;8.35;;;25.90;62.10;;;;;;5070538;28;20192;-87
2021/09/14 11:15:58;;;;;;;10.20;9.20;;;25.80;63.50;;;;;;5070555;28;20191;-86
2021/09/14 11:18:26;;;;;;;9.45;8.52;;;25.70;64.40;;;;;;5067010;28;20247;-86
2021/09/14 11:21:00;;;;;;;9.15;8.25;;;25.50;64.90;;;;;;5064071;28;20211;-86
2021/09/14 11:23:25;;;;;;;9.68;8.88;;;25.80;64.10;;;;;;5066523;28;20219;-88
2021/09/14 11:25:55;;;;;;;9.23;8.32;;;26.10;63.60;;;;;;5069652;28;20190;-88
2021/09/14 11:28:22;;;;;;;8.73;8.02;;;26.10;62.70;;;;;;5062403;28;20200;-87
2021/09/14 11:31:03;;;;;;;9.30;8.52;;;26.20;63.20;;;;;;5047419;28;20694;-86
2021/09/14 11:33:30;;;;;;;9.05;8.32;;;26.30;62.70;;;;;;5065223;28;20245;-88
2021/09/14 11:35:58;;;;;;;9.75;8.95;;;26.10;64.10;;;;;;5066720;28;20231;-87
2021/09/14 11:38:24;;;;;;;9.00;8.20;;;26.00;64.40;;;;;;5067437;28;20242;-85
2021/09/14 11:40:57;;;;;;;9.13;8.32;;;26.10;63.80;;;;;;5069050;28;20285;-87
2021/09/14 11:43:29;;;;;;;8.50;7.75;;;26.10;63.70;;;;;;5063894;28;20204;-87
2021/09/14 11:45:56;;;;;;;9.73;8.73;;;26.00;65.00;;;;;;5063353;28;20177;-86
2021/09/14 11:48:28;;;;;;;10.10;9.35;;;26.10;64.10;;;;;;5074336;28;20229;-88
2021/09/14 11:51:12;;;;;;;9.70;8.80;;;26.30;62.90;;;;;;5071549;28;20180;-88
2021/09/14 11:53:45;;;;;;;9.05;8.25;;;26.40;63.10;;;;;;5077753;28;20203;-87
2021/09/14 11:56:13;;;;;;;9.23;8.52;;;26.40;64.30;;;;;;5069673;28;20183;-87
2021/09/14 11:58:43;;;;;;;9.63;8.75;;;26.60;62.60;;;;;;5072634;28;20204;-88
2021/09/14 12:01:10;;;;;;;9.95;9.10;;;27.00;60.90;;;;;;5072413;28;20184;-86
2021/09/14 12:03:37;;;;;;;11.10;10.02;;;27.40;59.80;;;;;;5072346;28;20235;-87
2021/09/14 12:06:05;;;;;;;9.73;8.93;;;27.40;59.40;;;;;;5054293;28;20188;-88
2021/09/14 12:08:43;;;;;;;9.63;8.65;;;27.90;58.60;;;;;;5070807;28;20204;-87
2021/09/14 12:11:10;;;;;;;10.43;8.98;;;28.40;56.80;;;;;;5069271;28;20192;-88
2021/09/14 12:13:41;;;;;;;10.32;8.48;;;28.80;55.10;;;;;;5075961;28;20199;-87
2021/09/14 12:16:17;;;;;;;10.48;9.57;;;28.60;54.70;;;;;;5073160;28;20195;-86
2021/09/14 12:18:43;;;;;;;30.75;10.52;;;28.30;56.80;;;;;;5070510;28;20230;-87
2021/09/14 12:21:12;;;;;;;9.30;8.57;;;28.10;57.70;;;;;;5066996;28;20256;-88
2021/09/14 12:23:39;;;;;;;9.15;8.27;;;28.10;57.80;;;;;;5065734;28;20924;-87
2021/09/14 12:26:16;;;;;;;9.02;8.23;;;28.20;57.50;;;;;;5068473;28;20194;-88
2021/09/14 12:28:42;;;;;;;11.80;9.13;;;28.30;57.50;;;;;;5070495;28;20210;-87
2021/09/14 12:31:07;;;;;;;8.90;8.05;;;28.00;57.90;;;;;;5065739;28;20842;-87
2021/09/14 12:33:34;;;;;;;8.70;7.80;;;27.80;56.80;;;;;;5065111;28;20207;-88
2021/09/14 12:36:00;;;;;;;10.52;8.25;;;27.90;56.90;;;;;;5064115;28;20191;-88
2021/09/14 12:38:26;;;;;;;12.68;9.13;;;27.60;58.40;;;;;;5068131;28;20937;-88
2021/09/14 12:40:52;;;;;;;10.07;9.15;;;27.50;58.90;;;;;;5027576;28;20206;-88
2021/09/14 12:43:18;;;;;;;9.30;8.20;;;27.50;58.10;;;;;;5065738;28;20246;-87
2021/09/14 12:45:43;;;;;;;9.15;8.40;;;27.80;57.60;;;;;;5049337;28;20189;-88
2021/09/14 12:48:09;;;;;;;8.93;8.20;;;28.10;57.00;;;;;;5063172;28;20208;-88
2021/09/14 12:50:35;;;;;;;8.55;7.72;;;28.30;56.40;;;;;;5045037;28;20214;-90
2021/09/14 12:53:04;;;;;;;8.63;7.43;;;28.30;56.70;;;;;;5067188;28;20290;-86
2021/09/14 12:55:34;;;;;;;8.85;8.05;;;28.40;56.60;;;;;;5066160;28;20191;-87
2021/09/14 12:58:01;;;;;;;9.35;8.38;;;28.50;56.30;;;;;;5049234;28;20215;-87
2021/09/14 13:00:27;;;;;;;8.90;8.10;;;28.50;57.90;;;;;;5066932;28;20168;-87
2021/09/14 13:02:53;;;;;;;8.15;7.45;;;28.30;58.30;;;;;;5053550;28;20545;-87
2021/09/14 13:05:19;;;;;;;7.93;7.30;;;28.20;58.90;;;;;;5073598;28;20620;-87
2021/09/14 13:07:45;;;;;;;8.68;7.85;;;28.20;58.90;;;;;;5052227;28;20207;-88
2021/09/14 13:10:13;;;;;;;8.45;7.65;;;28.50;58.00;;;;;;5070147;28;20199;-90
2021/09/14 13:12:45;;;;;;;8.57;7.97;;;28.70;58.30;;;;;;5047649;28;20191;-88
2021/09/14 13:17:55;;;;;;;8.93;8.10;;;29.00;56.80;;;;;;5066833;28;20238;-89
2021/09/14 13:20:21;;;;;;;8.57;7.88;;;29.20;55.40;;;;;;5045460;28;20329;-89
2021/09/14 13:22:47;;;;;;;8.80;7.93;;;29.20;56.40;;;;;;5057151;28;20214;-89
2021/09/14 13:25:13;;;;;;;8.40;7.65;;;29.70;55.00;;;;;;5063406;28;20220;-89
2021/09/14 13:27:38;;;;;;;9.55;8.10;;;30.40;51.30;;;;;;5069317;28;20211;-89
2021/09/14 13:30:16;;;;;;;8.27;7.68;;;30.90;49.10;;;;;;5066185;28;20199;-90
2021/09/14 13:32:43;;;;;;;8.45;7.75;;;31.00;49.30;;;;;;5069065;28;20191;-90
2021/09/14 13:35:09;;;;;;;8.07;7.47;;;31.30;48.90;;;;;;5034806;28;20185;-90
2021/09/14 13:37:35;;;;;;;8.90;8.18;;;31.50;48.60;;;;;;5075725;28;20253;-89
2021/09/14 13:40:00;;;;;;;9.45;8.55;;;31.70;47.30;;;;;;5075357;28;20225;-89
2021/09/14 13:42:27;;;;;;;8.52;7.93;;;30.90;48.40;;;;;;5049921;28;20180;-89
2021/09/14 13:47:20;;;;;;;7.97;7.38;;;30.20;51.50;;;;;;5079171;28;20250;-90
2021/09/14 13:49:50;;;;;;;8.15;7.55;;;30.20;51.00;;;;;;5055902;28;20791;-90
2021/09/14 13:52:17;;;;;;;8.80;7.90;;;30.50;50.70;;;;;;5053607;28;20198;-90
2021/09/14 13:54:43;;;;;;;7.68;7.07;;;30.60;50.70;;;;;;5055778;28;20302;-89
2021/09/14 13:57:09;;;;;;;8.63;7.68;;;30.40;51.50;;;;;;5074802;28;20243;-90